N750XC KORD-KCLE
Flight info
| Callsign | N750XC |
|---|---|
| Flight time | 0h 42m |
| Altitude | 39000 |
| Route | DUFEE LOGGR DETMR BRWNZ4 |
| Aircraft | C750/M-SBDE3FGHRWXY/S |
Departure
| Time | 2026-05-05 21:58 |
|---|---|
| Airport | Chicago O'Hare International Airport (KORD) |
Arrival
| Time | 2026-05-05 22:40 |
|---|---|
| Airport | Cleveland Hopkins International Airport (KCLE) |
| Time | Latitude | Longitude | Altitude | Speed | Heading |
|---|---|---|---|---|---|
| 2026-05-05 21:46 | 41.99156 | -87.89145 | 667 ft | 0 kts | 197° |
| 2026-05-05 21:49 | 41.99156 | -87.89144 | 667 ft | 0 kts | 197° |
| 2026-05-05 21:55 | 41.99150 | -87.89134 | 667 ft | 6 kts | 117° |
| 2026-05-05 21:56 | 41.99115 | -87.89042 | 667 ft | 13 kts | 173° |
| 2026-05-05 21:56 | 41.99022 | -87.89041 | 667 ft | 14 kts | 180° |
| 2026-05-05 21:56 | 41.98939 | -87.89041 | 668 ft | 4 kts | 180° |
| 2026-05-05 21:56 | 41.98920 | -87.89041 | 669 ft | 4 kts | 180° |
| 2026-05-05 21:57 | 41.98863 | -87.89048 | 670 ft | 13 kts | 206° |
| 2026-05-05 21:57 | 41.98833 | -87.89225 | 668 ft | 33 kts | 270° |
| 2026-05-05 21:57 | 41.98832 | -87.89976 | 666 ft | 126 kts | 270° |
| 2026-05-05 21:57 | 41.98853 | -87.91242 | 1174 ft | 139 kts | 274° |
| 2026-05-05 21:58 | 41.98920 | -87.92625 | 1758 ft | 160 kts | 278° |
| 2026-05-05 21:58 | 41.99626 | -87.93944 | 2124 ft | 201 kts | 328° |
| 2026-05-05 21:58 | 42.01128 | -87.94111 | 2633 ft | 242 kts | 12° |
| 2026-05-05 21:58 | 42.02646 | -87.92895 | 3459 ft | 261 kts | 34° |
| 2026-05-05 21:59 | 42.04032 | -87.91332 | 4700 ft | 262 kts | 40° |
| 2026-05-05 21:59 | 42.05020 | -87.89209 | 5640 ft | 278 kts | 70° |
| 2026-05-05 21:59 | 42.05344 | -87.86623 | 6704 ft | 283 kts | 83° |
| 2026-05-05 21:59 | 42.05533 | -87.83938 | 7607 ft | 294 kts | 85° |
| 2026-05-05 22:00 | 42.05725 | -87.81142 | 8537 ft | 305 kts | 85° |
| 2026-05-05 22:00 | 42.05952 | -87.78253 | 9468 ft | 316 kts | 85° |
| 2026-05-05 22:00 | 42.06190 | -87.75264 | 10241 ft | 327 kts | 85° |
| 2026-05-05 22:00 | 42.06429 | -87.72110 | 10563 ft | 352 kts | 85° |
| 2026-05-05 22:01 | 42.06683 | -87.68691 | 10700 ft | 380 kts | 85° |
| 2026-05-05 22:01 | 42.06958 | -87.65069 | 11172 ft | 392 kts | 85° |
| 2026-05-05 22:01 | 42.07239 | -87.61415 | 11983 ft | 394 kts | 85° |
| 2026-05-05 22:01 | 42.07516 | -87.57719 | 12689 ft | 399 kts | 85° |
| 2026-05-05 22:02 | 42.07792 | -87.53985 | 13421 ft | 403 kts | 86° |
| 2026-05-05 22:02 | 42.08074 | -87.50198 | 14066 ft | 408 kts | 85° |
| 2026-05-05 22:02 | 42.08355 | -87.46422 | 14640 ft | 414 kts | 85° |
| 2026-05-05 22:02 | 42.08641 | -87.42536 | 15221 ft | 419 kts | 85° |
| 2026-05-05 22:03 | 42.08929 | -87.38615 | 15806 ft | 424 kts | 85° |
| 2026-05-05 22:03 | 42.09220 | -87.34629 | 16407 ft | 430 kts | 85° |
| 2026-05-05 22:03 | 42.09514 | -87.30598 | 17020 ft | 435 kts | 85° |
| 2026-05-05 22:03 | 42.09809 | -87.26516 | 17647 ft | 441 kts | 85° |
| 2026-05-05 22:04 | 42.10106 | -87.22371 | 18275 ft | 447 kts | 85° |
| 2026-05-05 22:04 | 42.10407 | -87.18183 | 18857 ft | 452 kts | 85° |
| 2026-05-05 22:04 | 42.10709 | -87.13949 | 19474 ft | 457 kts | 86° |
| 2026-05-05 22:04 | 42.11012 | -87.09669 | 20091 ft | 462 kts | 86° |
| 2026-05-05 22:05 | 42.11293 | -87.05334 | 20686 ft | 466 kts | 88° |
| 2026-05-05 22:05 | 42.11448 | -87.00958 | 21292 ft | 471 kts | 90° |
| 2026-05-05 22:05 | 42.11603 | -86.96518 | 21913 ft | 476 kts | 90° |
| 2026-05-05 22:05 | 42.11772 | -86.92058 | 22534 ft | 480 kts | 89° |
| 2026-05-05 22:06 | 42.11943 | -86.87535 | 23148 ft | 485 kts | 90° |
| 2026-05-05 22:06 | 42.12104 | -86.82974 | 23688 ft | 490 kts | 90° |
| 2026-05-05 22:06 | 42.12262 | -86.78363 | 24189 ft | 494 kts | 90° |
| 2026-05-05 22:06 | 42.12425 | -86.73726 | 24682 ft | 499 kts | 90° |
| 2026-05-05 22:07 | 42.12535 | -86.70623 | 25007 ft | 501 kts | 90° |
| 2026-05-05 22:07 | 42.12655 | -86.67160 | 25366 ft | 505 kts | 90° |
| 2026-05-05 22:07 | 42.12816 | -86.62382 | 25849 ft | 509 kts | 90° |
| 2026-05-05 22:07 | 42.12972 | -86.57708 | 26313 ft | 513 kts | 90° |
| 2026-05-05 22:08 | 42.13135 | -86.52835 | 26844 ft | 516 kts | 89° |
| 2026-05-05 22:08 | 42.13293 | -86.48047 | 27318 ft | 520 kts | 89° |
| 2026-05-05 22:08 | 42.13449 | -86.43161 | 27782 ft | 524 kts | 89° |
| 2026-05-05 22:08 | 42.13606 | -86.38223 | 28259 ft | 529 kts | 89° |
| 2026-05-05 22:09 | 42.13763 | -86.33252 | 28724 ft | 533 kts | 89° |
| 2026-05-05 22:09 | 42.13919 | -86.28237 | 29195 ft | 539 kts | 90° |
| 2026-05-05 22:09 | 42.14074 | -86.23151 | 29594 ft | 545 kts | 90° |
| 2026-05-05 22:09 | 42.14228 | -86.18047 | 30057 ft | 548 kts | 90° |
| 2026-05-05 22:10 | 42.14382 | -86.12881 | 30386 ft | 554 kts | 90° |
| 2026-05-05 22:10 | 42.14377 | -86.07666 | 30666 ft | 557 kts | 94° |
| 2026-05-05 22:10 | 42.14247 | -86.02435 | 31119 ft | 559 kts | 94° |
| 2026-05-05 22:10 | 42.14125 | -85.97190 | 31611 ft | 561 kts | 94° |
| 2026-05-05 22:11 | 42.14024 | -85.91930 | 32042 ft | 564 kts | 93° |
| 2026-05-05 22:11 | 42.13917 | -85.86709 | 32494 ft | 566 kts | 93° |
| 2026-05-05 22:11 | 42.13788 | -85.81394 | 32957 ft | 569 kts | 93° |
| 2026-05-05 22:11 | 42.13656 | -85.76059 | 33433 ft | 571 kts | 92° |
| 2026-05-05 22:12 | 42.13533 | -85.70700 | 33899 ft | 574 kts | 92° |
| 2026-05-05 22:12 | 42.13410 | -85.65321 | 34338 ft | 575 kts | 92° |
| 2026-05-05 22:12 | 42.13274 | -85.59938 | 34833 ft | 575 kts | 92° |
| 2026-05-05 22:12 | 42.13134 | -85.54541 | 35327 ft | 576 kts | 92° |
| 2026-05-05 22:13 | 42.12998 | -85.49151 | 35830 ft | 576 kts | 91° |
| 2026-05-05 22:13 | 42.12861 | -85.43757 | 36336 ft | 577 kts | 91° |
| 2026-05-05 22:13 | 42.12717 | -85.38352 | 36881 ft | 576 kts | 91° |
| 2026-05-05 22:13 | 42.12568 | -85.32970 | 37444 ft | 575 kts | 91° |
| 2026-05-05 22:14 | 42.12421 | -85.27586 | 37958 ft | 576 kts | 90° |
| 2026-05-05 22:14 | 42.12273 | -85.22195 | 38482 ft | 576 kts | 90° |
| 2026-05-05 22:14 | 42.12119 | -85.16787 | 38862 ft | 579 kts | 90° |
| 2026-05-05 22:14 | 42.11961 | -85.11308 | 38858 ft | 590 kts | 90° |
| 2026-05-05 22:15 | 42.11710 | -85.05742 | 38867 ft | 601 kts | 93° |
| 2026-05-05 22:15 | 42.11050 | -84.94346 | 38875 ft | 618 kts | 93° |
| 2026-05-05 22:16 | 42.10394 | -84.82689 | 38878 ft | 629 kts | 93° |
| 2026-05-05 22:16 | 42.09694 | -84.70878 | 38866 ft | 636 kts | 94° |
| 2026-05-05 22:17 | 42.08994 | -84.59002 | 38863 ft | 635 kts | 94° |
| 2026-05-05 22:17 | 42.08272 | -84.47131 | 38865 ft | 637 kts | 94° |
| 2026-05-05 22:18 | 42.07548 | -84.35325 | 38859 ft | 637 kts | 94° |
| 2026-05-05 22:18 | 42.06806 | -84.23527 | 38851 ft | 631 kts | 94° |
| 2026-05-05 22:19 | 42.06062 | -84.11817 | 38417 ft | 613 kts | 94° |
| 2026-05-05 22:19 | 42.05700 | -84.06182 | 37510 ft | 597 kts | 94° |
| 2026-05-05 22:19 | 42.05341 | -84.00660 | 36650 ft | 588 kts | 95° |
| 2026-05-05 22:19 | 42.04985 | -83.95215 | 35856 ft | 583 kts | 95° |
| 2026-05-05 22:20 | 42.04627 | -83.89779 | 35114 ft | 582 kts | 95° |
| 2026-05-05 22:20 | 42.04270 | -83.84404 | 34422 ft | 576 kts | 96° |
| 2026-05-05 22:20 | 42.03908 | -83.78990 | 33882 ft | 580 kts | 96° |
| 2026-05-05 22:21 | 42.03180 | -83.68229 | 33849 ft | 579 kts | 96° |
| 2026-05-05 22:21 | 42.02441 | -83.57417 | 33853 ft | 581 kts | 96° |
| 2026-05-05 22:22 | 42.01695 | -83.46669 | 33837 ft | 572 kts | 97° |
| 2026-05-05 22:22 | 42.00947 | -83.36051 | 33047 ft | 556 kts | 97° |
| 2026-05-05 22:22 | 42.00589 | -83.30971 | 32367 ft | 536 kts | 97° |
| 2026-05-05 22:23 | 42.00220 | -83.26049 | 31699 ft | 522 kts | 98° |
| 2026-05-05 22:23 | 41.99847 | -83.21285 | 31062 ft | 515 kts | 98° |
| 2026-05-05 22:23 | 41.99480 | -83.16457 | 30399 ft | 510 kts | 98° |
| 2026-05-05 22:23 | 41.99127 | -83.11713 | 29324 ft | 508 kts | 98° |
| 2026-05-05 22:24 | 41.98774 | -83.07041 | 28234 ft | 497 kts | 98° |
| 2026-05-05 22:24 | 41.98417 | -83.02528 | 27203 ft | 487 kts | 99° |
| 2026-05-05 22:24 | 41.98060 | -82.98056 | 26195 ft | 477 kts | 99° |
| 2026-05-05 22:24 | 41.97717 | -82.93670 | 25220 ft | 467 kts | 99° |
| 2026-05-05 22:25 | 41.97381 | -82.89380 | 24280 ft | 457 kts | 100° |
| 2026-05-05 22:25 | 41.97043 | -82.85182 | 23358 ft | 447 kts | 100° |
| 2026-05-05 22:25 | 41.96709 | -82.81066 | 22284 ft | 438 kts | 101° |
| 2026-05-05 22:25 | 41.96299 | -82.77067 | 21195 ft | 425 kts | 107° |
| 2026-05-05 22:26 | 41.95570 | -82.73271 | 20198 ft | 416 kts | 111° |
| 2026-05-05 22:26 | 41.94794 | -82.69554 | 19234 ft | 409 kts | 111° |
| 2026-05-05 22:26 | 41.94057 | -82.65892 | 18302 ft | 404 kts | 110° |
| 2026-05-05 22:26 | 41.93360 | -82.62264 | 17275 ft | 399 kts | 110° |
| 2026-05-05 22:27 | 41.92657 | -82.58680 | 16247 ft | 394 kts | 111° |
| 2026-05-05 22:27 | 41.91947 | -82.55159 | 15457 ft | 385 kts | 111° |
| 2026-05-05 22:27 | 41.91274 | -82.51758 | 15203 ft | 379 kts | 111° |
| 2026-05-05 22:27 | 41.90594 | -82.48325 | 14831 ft | 381 kts | 111° |
| 2026-05-05 22:28 | 41.89913 | -82.44887 | 14429 ft | 381 kts | 111° |
| 2026-05-05 22:28 | 41.89242 | -82.41500 | 14029 ft | 379 kts | 111° |
| 2026-05-05 22:28 | 41.88567 | -82.38088 | 13612 ft | 377 kts | 111° |
| 2026-05-05 22:28 | 41.87900 | -82.34694 | 13185 ft | 374 kts | 111° |
| 2026-05-05 22:29 | 41.87236 | -82.31326 | 12785 ft | 372 kts | 111° |
| 2026-05-05 22:29 | 41.86563 | -82.27953 | 12385 ft | 384 kts | 111° |
| 2026-05-05 22:29 | 41.85839 | -82.24367 | 11993 ft | 407 kts | 110° |
| 2026-05-05 22:29 | 41.84970 | -82.20799 | 11515 ft | 399 kts | 121° |
| 2026-05-05 22:30 | 41.83569 | -82.17648 | 11129 ft | 393 kts | 128° |
| 2026-05-05 22:30 | 41.82137 | -82.14546 | 10717 ft | 390 kts | 128° |
| 2026-05-05 22:30 | 41.80735 | -82.11440 | 10301 ft | 388 kts | 127° |
| 2026-05-05 22:30 | 41.79334 | -82.08355 | 9880 ft | 385 kts | 127° |
| 2026-05-05 22:31 | 41.77932 | -82.05309 | 9445 ft | 382 kts | 128° |
| 2026-05-05 22:31 | 41.76537 | -82.02284 | 9029 ft | 380 kts | 128° |
| 2026-05-05 22:31 | 41.75175 | -81.99310 | 8622 ft | 378 kts | 127° |
| 2026-05-05 22:31 | 41.73803 | -81.96313 | 8230 ft | 375 kts | 127° |
| 2026-05-05 22:32 | 41.72440 | -81.93347 | 7832 ft | 366 kts | 127° |
| 2026-05-05 22:32 | 41.71167 | -81.90557 | 7451 ft | 335 kts | 128° |
| 2026-05-05 22:32 | 41.69963 | -81.88027 | 7093 ft | 313 kts | 130° |
| 2026-05-05 22:32 | 41.68821 | -81.85697 | 6780 ft | 294 kts | 130° |
| 2026-05-05 22:33 | 41.67742 | -81.83420 | 6474 ft | 284 kts | 129° |
| 2026-05-05 22:33 | 41.66744 | -81.81218 | 6180 ft | 270 kts | 129° |
| 2026-05-05 22:33 | 41.65785 | -81.79133 | 5891 ft | 257 kts | 130° |
| 2026-05-05 22:33 | 41.64845 | -81.77167 | 5628 ft | 245 kts | 131° |
| 2026-05-05 22:34 | 41.63933 | -81.75273 | 5376 ft | 239 kts | 130° |
| 2026-05-05 22:34 | 41.63019 | -81.73440 | 5108 ft | 233 kts | 136° |
| 2026-05-05 22:34 | 41.61779 | -81.72215 | 4895 ft | 212 kts | 164° |
| 2026-05-05 22:34 | 41.60394 | -81.71713 | 5018 ft | 208 kts | 176° |
| 2026-05-05 22:35 | 41.58960 | -81.71323 | 4993 ft | 212 kts | 176° |
| 2026-05-05 22:35 | 41.57504 | -81.70910 | 4779 ft | 215 kts | 174° |
| 2026-05-05 22:35 | 41.56042 | -81.70498 | 4488 ft | 215 kts | 174° |
| 2026-05-05 22:35 | 41.54567 | -81.70091 | 4194 ft | 217 kts | 174° |
| 2026-05-05 22:36 | 41.53101 | -81.70161 | 3849 ft | 209 kts | 200° |
| 2026-05-05 22:36 | 41.51834 | -81.70985 | 3632 ft | 195 kts | 214° |
| 2026-05-05 22:36 | 41.50704 | -81.71868 | 3392 ft | 183 kts | 214° |
| 2026-05-05 22:36 | 41.49604 | -81.72715 | 3152 ft | 182 kts | 215° |
| 2026-05-05 22:37 | 41.48625 | -81.73642 | 2862 ft | 159 kts | 232° |
| 2026-05-05 22:37 | 41.48001 | -81.74658 | 2696 ft | 130 kts | 236° |
| 2026-05-05 22:37 | 41.47434 | -81.75554 | 2541 ft | 126 kts | 236° |
| 2026-05-05 22:37 | 41.46870 | -81.76450 | 2374 ft | 126 kts | 234° |
| 2026-05-05 22:38 | 41.46290 | -81.77372 | 2238 ft | 133 kts | 235° |
| 2026-05-05 22:38 | 41.45696 | -81.78303 | 2092 ft | 131 kts | 236° |
| 2026-05-05 22:38 | 41.45106 | -81.79241 | 1921 ft | 132 kts | 235° |
| 2026-05-05 22:38 | 41.44514 | -81.80184 | 1743 ft | 135 kts | 234° |
| 2026-05-05 22:39 | 41.43920 | -81.81138 | 1559 ft | 132 kts | 236° |
| 2026-05-05 22:39 | 41.43326 | -81.82087 | 1385 ft | 133 kts | 234° |
| 2026-05-05 22:39 | 41.42714 | -81.83022 | 1180 ft | 130 kts | 234° |
| 2026-05-05 22:39 | 41.42126 | -81.83944 | 989 ft | 129 kts | 233° |
| 2026-05-05 22:40 | 41.41559 | -81.84860 | 818 ft | 126 kts | 234° |
| 2026-05-05 22:40 | 41.41045 | -81.85674 | 784 ft | 94 kts | 230° |
| 2026-05-05 22:40 | 41.40770 | -81.86113 | 788 ft | 35 kts | 231° |
| 2026-05-05 22:40 | 41.40622 | -81.86252 | 786 ft | 22 kts | 195° |
| 2026-05-05 22:41 | 41.40507 | -81.86186 | 786 ft | 16 kts | 142° |
| 2026-05-05 22:41 | 41.40424 | -81.86095 | 785 ft | 17 kts | 140° |
| 2026-05-05 22:41 | 41.40323 | -81.85982 | 786 ft | 14 kts | 141° |
| 2026-05-05 22:41 | 41.40322 | -81.85890 | 786 ft | 15 kts | 49° |
| 2026-05-05 22:42 | 41.40408 | -81.85754 | 787 ft | 22 kts | 50° |
| 2026-05-05 22:42 | 41.40497 | -81.85614 | 787 ft | 17 kts | 50° |
| 2026-05-05 22:42 | 41.40535 | -81.85522 | 786 ft | 8 kts | 131° |
| 2026-05-05 22:42 | 41.40491 | -81.85498 | 786 ft | 13 kts | 161° |
| 2026-05-05 22:43 | 41.40380 | -81.85450 | 786 ft | 20 kts | 162° |
| 2026-05-05 22:43 | 41.40312 | -81.85408 | 786 ft | 7 kts | 118° |
| 2026-05-05 22:43 | 41.40290 | -81.85375 | 786 ft | 4 kts | 201° |
| 2026-05-05 22:43 | 41.40279 | -81.85413 | 786 ft | 0 kts | 271° |